createdAt,value
2023-04-15T00:00:07.611Z,24.93
2023-04-15T00:01:07.593Z,24.91
2023-04-15T00:02:07.657Z,24.90
2023-04-15T00:03:07.753Z,24.88
2023-04-15T00:04:07.686Z,24.89
2023-04-15T00:05:07.481Z,24.93
2023-04-15T00:06:07.466Z,24.91
2023-04-15T00:07:07.444Z,24.91
2023-04-15T00:08:07.433Z,24.93
2023-04-15T00:09:07.408Z,24.89
2023-04-15T00:10:07.388Z,24.91
2023-04-15T00:11:07.386Z,24.89
2023-04-15T00:12:07.349Z,24.93
2023-04-15T00:13:07.321Z,24.88
2023-04-15T00:14:07.311Z,24.90
2023-04-15T00:15:07.275Z,24.87
2023-04-15T00:16:07.254Z,24.93
2023-04-15T00:17:07.223Z,24.91
2023-04-15T00:18:07.196Z,24.91
2023-04-15T00:19:07.174Z,24.93
2023-04-15T00:20:07.154Z,24.89
2023-04-15T00:21:07.144Z,24.89
2023-04-15T00:22:07.115Z,24.94
2023-04-15T00:23:07.088Z,24.91
2023-04-15T00:24:07.070Z,24.94
2023-04-15T00:25:07.047Z,24.88
2023-04-15T00:26:07.030Z,24.97
2023-04-15T00:27:07.000Z,24.89
2023-04-15T00:28:06.995Z,24.91
2023-04-15T00:29:06.969Z,24.94
2023-04-15T00:30:06.960Z,24.94
2023-04-15T00:31:06.975Z,24.91
2023-04-15T00:32:06.921Z,24.91
2023-04-15T00:33:06.908Z,24.93
2023-04-15T00:34:06.878Z,24.91
2023-04-15T00:35:06.849Z,24.91
2023-04-15T00:36:06.837Z,24.94
2023-04-15T00:37:06.809Z,24.87
2023-04-15T00:38:06.788Z,24.94
2023-04-15T00:39:06.781Z,24.98
2023-04-15T00:40:06.745Z,24.94
2023-04-15T00:41:06.720Z,24.94
2023-04-15T00:42:06.709Z,24.94
2023-04-15T00:43:06.679Z,24.93
2023-04-15T00:44:06.663Z,24.95
2023-04-15T00:45:06.624Z,24.93
2023-04-15T00:46:06.651Z,24.98
2023-04-15T00:47:06.595Z,24.97
2023-04-15T00:48:06.587Z,24.98
2023-04-15T00:49:06.549Z,24.93
2023-04-15T00:50:06.527Z,24.94
2023-04-15T00:51:06.520Z,24.94
2023-04-15T00:52:06.488Z,24.95
2023-04-15T00:53:06.508Z,24.98
2023-04-15T00:54:06.460Z,24.94
2023-04-15T00:55:06.468Z,24.97
2023-04-15T00:56:06.465Z,24.98
2023-04-15T00:57:06.440Z,24.94
2023-04-15T00:58:06.445Z,24.91
2023-04-15T00:59:06.507Z,24.95
2023-04-15T01:00:06.462Z,24.98
2023-04-15T01:01:06.537Z,24.95
2023-04-15T01:02:06.643Z,24.97
2023-04-15T01:03:06.608Z,25.00
2023-04-15T01:04:06.545Z,24.93
2023-04-15T01:05:06.466Z,24.94
2023-04-15T01:06:06.447Z,24.95
2023-04-15T01:07:06.422Z,24.98
2023-04-15T01:08:06.406Z,25.01
2023-04-15T01:09:06.388Z,25.00
2023-04-15T01:10:06.412Z,25.01
2023-04-15T01:11:06.326Z,25.01
2023-04-15T01:12:06.316Z,24.98
2023-04-15T01:13:06.297Z,24.97
2023-04-15T01:14:06.271Z,24.97
2023-04-15T01:15:06.248Z,24.95
2023-04-15T01:16:06.261Z,25.01
2023-04-15T01:17:06.198Z,25.00
2023-04-15T01:18:06.184Z,25.00
2023-04-15T01:19:06.172Z,24.98
2023-04-15T01:20:06.129Z,25.02
2023-04-15T01:21:06.100Z,25.00
2023-04-15T01:22:06.078Z,24.93
2023-04-15T01:23:06.054Z,25.00
2023-04-15T01:24:06.032Z,25.01
2023-04-15T01:25:06.007Z,24.99
2023-04-15T01:26:05.993Z,24.98
2023-04-15T01:27:05.967Z,24.99
2023-04-15T01:28:05.944Z,24.99
2023-04-15T01:29:05.931Z,25.01
2023-04-15T01:30:05.908Z,24.93
2023-04-15T01:31:05.944Z,25.01
2023-04-15T01:32:05.938Z,25.02
2023-04-15T01:33:05.861Z,24.98
2023-04-15T01:34:05.846Z,24.99
2023-04-15T01:35:05.830Z,25.08
2023-04-15T01:36:05.808Z,25.01
2023-04-15T01:37:05.771Z,25.04
2023-04-15T01:38:05.748Z,25.05
2023-04-15T01:39:05.752Z,25.02
2023-04-15T01:40:05.715Z,25.05
2023-04-15T01:41:05.705Z,24.99
2023-04-15T01:42:05.682Z,25.01
2023-04-15T01:43:05.677Z,25.08
2023-04-15T01:44:05.663Z,25.01
2023-04-15T01:45:05.648Z,25.04
2023-04-15T01:46:05.631Z,25.07
2023-04-15T01:47:05.635Z,24.98
2023-04-15T01:48:05.605Z,25.02
2023-04-15T01:49:05.590Z,25.01
2023-04-15T01:50:05.592Z,25.07
2023-04-15T01:51:05.590Z,25.06
2023-04-15T01:52:05.578Z,25.05
2023-04-15T01:53:05.571Z,25.05
2023-04-15T01:54:05.617Z,25.01
2023-04-15T01:55:05.634Z,25.07
2023-04-15T01:56:05.617Z,25.05
2023-04-15T01:57:05.622Z,25.05
2023-04-15T01:58:05.586Z,25.02
2023-04-15T01:59:05.583Z,25.05
2023-04-15T02:01:24.661Z,25.09
2023-04-15T02:02:24.678Z,25.06
2023-04-15T02:03:24.650Z,25.08
2023-04-15T02:04:24.595Z,25.06
2023-04-15T02:05:24.552Z,25.07
2023-04-15T02:06:24.517Z,25.05
2023-04-15T02:07:24.492Z,25.07
2023-04-15T02:08:24.471Z,25.05
2023-04-15T02:09:24.460Z,25.09
2023-04-15T02:10:24.433Z,25.05
2023-04-15T02:11:24.395Z,25.08
2023-04-15T02:12:24.383Z,25.02
2023-04-15T02:13:24.366Z,25.09
2023-04-15T02:14:24.338Z,25.03
2023-04-15T02:15:24.309Z,25.05
2023-04-15T02:16:24.313Z,25.05
2023-04-15T02:17:24.299Z,25.04
2023-04-15T02:18:24.269Z,25.08
2023-04-15T02:19:24.241Z,25.06
2023-04-15T02:20:24.218Z,25.02
2023-04-15T02:21:24.175Z,25.06
2023-04-15T02:22:24.156Z,25.06
2023-04-15T02:23:24.132Z,25.05
2023-04-15T02:24:24.105Z,25.03
2023-04-15T02:25:24.081Z,25.05
2023-04-15T02:26:24.050Z,25.06
2023-04-15T02:27:24.035Z,25.06
2023-04-15T02:28:24.008Z,25.09
2023-04-15T02:29:23.974Z,25.06
2023-04-15T02:30:23.947Z,25.06
2023-04-15T02:31:23.938Z,25.03
2023-04-15T02:32:23.951Z,25.06
2023-04-15T02:33:23.869Z,25.06
2023-04-15T02:34:23.868Z,25.08
2023-04-15T02:35:23.881Z,25.03
2023-04-15T02:36:23.942Z,25.02
2023-04-15T02:37:23.889Z,25.08
2023-04-15T02:38:23.892Z,25.06
2023-04-15T02:39:23.891Z,25.06
2023-04-15T02:40:23.902Z,25.08
2023-04-15T02:41:23.997Z,25.09
2023-04-15T02:42:23.922Z,25.09
2023-04-15T02:43:23.945Z,25.11
2023-04-15T02:44:23.937Z,25.06
2023-04-15T02:45:23.964Z,24.97
2023-04-15T02:46:24.058Z,25.06
2023-04-15T02:47:24.003Z,25.08
2023-04-15T02:48:24.012Z,25.06
2023-04-15T02:49:24.006Z,25.08
2023-04-15T02:50:24.006Z,25.08
2023-04-15T02:51:24.022Z,25.03
2023-04-15T02:52:24.025Z,25.05
2023-04-15T02:53:24.058Z,25.08
2023-04-15T02:54:24.030Z,25.11
2023-04-15T02:55:24.038Z,25.13
2023-04-15T02:56:24.053Z,25.09
2023-04-15T02:57:24.056Z,24.33
2023-04-15T02:58:24.060Z,24.12
2023-04-15T02:59:24.077Z,24.09
2023-04-15T03:00:24.069Z,24.10
2023-04-15T03:01:24.136Z,23.94
2023-04-15T03:02:24.197Z,23.71
2023-04-15T03:03:24.099Z,23.59
2023-04-15T03:04:24.041Z,23.48
2023-04-15T03:05:24.052Z,23.52
2023-04-15T03:06:24.046Z,23.33
2023-04-15T03:07:24.064Z,23.36
2023-04-15T03:08:24.084Z,23.33
2023-04-15T03:09:24.108Z,23.17
2023-04-15T03:10:24.137Z,23.15
2023-04-15T03:11:24.174Z,23.29
2023-04-15T03:12:24.203Z,23.10
2023-04-15T03:13:24.233Z,23.13
2023-04-15T03:14:24.266Z,23.08
2023-04-15T03:15:24.336Z,23.04
2023-04-15T03:16:24.354Z,23.09
2023-04-15T03:17:24.445Z,23.04
2023-04-15T03:18:24.437Z,22.93
2023-04-15T03:19:24.509Z,22.88
2023-04-15T03:20:24.563Z,22.92
2023-04-15T03:21:24.602Z,22.84
2023-04-15T03:22:24.654Z,22.84
2023-04-15T03:23:24.706Z,22.86
2023-04-15T03:24:24.783Z,22.79
2023-04-15T03:25:24.830Z,22.87
2023-04-15T03:26:24.878Z,22.74
2023-04-15T03:27:24.932Z,22.66
2023-04-15T03:28:24.994Z,22.72
2023-04-15T03:29:24.972Z,22.66
2023-04-15T03:30:24.971Z,22.63
2023-04-15T03:31:24.985Z,22.70
2023-04-15T03:32:24.937Z,22.64
2023-04-15T03:33:24.937Z,22.62
2023-04-15T03:34:24.902Z,22.53
2023-04-15T03:35:24.885Z,22.58
2023-04-15T03:36:24.862Z,22.57
2023-04-15T03:37:24.852Z,22.62
2023-04-15T03:38:24.846Z,22.56
2023-04-15T03:39:24.872Z,22.56
2023-04-15T03:40:24.906Z,22.62
2023-04-15T03:41:24.920Z,22.51
2023-04-15T03:42:24.958Z,22.54
2023-04-15T03:43:24.989Z,22.50
2023-04-15T03:44:25.015Z,22.49
2023-04-15T03:45:25.073Z,22.63
2023-04-15T03:46:25.177Z,22.51
2023-04-15T03:47:25.230Z,22.56
2023-04-15T03:48:25.232Z,22.53
2023-04-15T03:49:25.304Z,22.54
2023-04-15T03:50:25.373Z,22.48
2023-04-15T03:51:25.393Z,22.53
2023-04-15T03:52:25.427Z,22.49
2023-04-15T03:53:25.483Z,22.54
2023-04-15T03:54:25.553Z,22.56
2023-04-15T03:55:25.621Z,22.54
2023-04-15T03:56:25.656Z,22.56
2023-04-15T03:57:25.747Z,22.54
2023-04-15T03:58:25.806Z,22.51
2023-04-15T03:59:25.855Z,22.45
2023-04-15T04:00:25.906Z,22.46
2023-04-15T04:01:26.028Z,22.43
2023-04-15T04:02:26.139Z,22.45
2023-04-15T04:03:26.226Z,22.51
2023-04-15T04:04:26.159Z,22.48
2023-04-15T04:05:26.096Z,22.38
2023-04-15T04:06:26.089Z,22.46
2023-04-15T04:07:26.115Z,22.46
2023-04-15T04:08:26.114Z,22.46
2023-04-15T04:09:26.105Z,22.39
2023-04-15T04:10:26.222Z,22.41
2023-04-15T04:11:26.110Z,22.41
2023-04-15T04:12:26.115Z,22.34
2023-04-15T04:13:26.161Z,22.33
2023-04-15T04:14:26.188Z,22.31
2023-04-15T04:15:26.231Z,22.38
2023-04-15T04:16:26.270Z,22.33
2023-04-15T04:17:26.265Z,22.34
2023-04-15T04:18:26.253Z,22.48
2023-04-15T04:19:26.261Z,22.47
2023-04-15T04:20:26.282Z,22.47
2023-04-15T04:21:26.312Z,22.42
2023-04-15T04:22:26.318Z,22.42
2023-04-15T04:23:26.335Z,22.37
2023-04-15T04:24:26.328Z,22.42
2023-04-15T04:25:26.345Z,22.34
2023-04-15T04:26:26.355Z,22.37
2023-04-15T04:27:26.357Z,22.43
2023-04-15T04:28:26.398Z,22.40
2023-04-15T04:29:26.402Z,22.48
2023-04-15T04:30:26.404Z,22.38
2023-04-15T04:31:26.466Z,22.37
2023-04-15T04:32:26.547Z,22.38
2023-04-15T04:33:26.541Z,22.39
2023-04-15T04:34:26.565Z,22.40
2023-04-15T04:35:26.584Z,22.36
2023-04-15T04:36:26.623Z,22.35
2023-04-15T04:37:26.642Z,22.33
2023-04-15T04:38:26.647Z,22.35
2023-04-15T04:39:26.653Z,22.30
2023-04-15T04:40:26.682Z,22.35
2023-04-15T04:41:26.679Z,22.32
2023-04-15T04:42:26.699Z,22.31
2023-04-15T04:43:26.719Z,22.31
2023-04-15T04:44:26.727Z,22.31
2023-04-15T04:45:26.772Z,22.24
2023-04-15T04:46:26.756Z,22.28
2023-04-15T04:47:26.846Z,22.27
2023-04-15T04:48:26.768Z,22.27
2023-04-15T04:49:26.779Z,22.33
2023-04-15T04:50:26.781Z,22.28
2023-04-15T04:51:26.803Z,22.29
2023-04-15T04:52:26.831Z,22.27
2023-04-15T04:53:26.810Z,22.23
2023-04-15T04:54:26.816Z,22.29
2023-04-15T04:55:26.840Z,22.25
2023-04-15T04:56:26.847Z,22.31
2023-04-15T04:57:26.878Z,22.28
2023-04-15T04:58:26.882Z,22.28
2023-04-15T04:59:26.902Z,22.31
2023-04-15T05:00:26.918Z,22.33
2023-04-15T05:01:26.984Z,22.26
2023-04-15T05:02:27.028Z,22.23
2023-04-15T05:03:27.014Z,22.31
2023-04-15T05:04:26.901Z,22.27
2023-04-15T05:05:26.895Z,22.30
2023-04-15T05:06:26.894Z,22.31
2023-04-15T05:07:26.895Z,22.24
2023-04-15T05:08:26.890Z,22.27
2023-04-15T05:09:26.903Z,22.29
2023-04-15T05:10:26.895Z,22.30
2023-04-15T05:11:26.925Z,22.27
2023-04-15T05:12:26.893Z,22.29
2023-04-15T05:13:26.896Z,22.21
2023-04-15T05:14:26.883Z,22.16
2023-04-15T05:15:26.886Z,22.19
2023-04-15T05:16:26.889Z,22.26
2023-04-15T05:17:26.914Z,22.21
2023-04-15T05:18:26.880Z,22.27
2023-04-15T05:19:26.891Z,22.30
2023-04-15T05:20:26.888Z,22.24
2023-04-15T05:21:26.886Z,22.29
2023-04-15T05:22:26.904Z,22.29
2023-04-15T05:23:26.880Z,22.24
2023-04-15T05:24:26.886Z,22.22
2023-04-15T05:25:26.895Z,22.26
2023-04-15T05:26:26.888Z,22.26
2023-04-15T05:27:26.890Z,22.29
2023-04-15T05:28:26.874Z,22.26
2023-04-15T05:29:26.876Z,22.30
2023-04-15T05:30:26.868Z,22.30
2023-04-15T05:31:26.932Z,22.29
2023-04-15T05:32:26.877Z,22.33
2023-04-15T05:33:26.878Z,22.33
2023-04-15T05:34:26.867Z,22.40
2023-04-15T05:35:26.885Z,22.36
2023-04-15T05:36:26.879Z,22.38
2023-04-15T05:37:26.876Z,22.33
2023-04-15T05:38:26.885Z,22.36
2023-04-15T05:39:26.890Z,22.36
2023-04-15T05:40:26.884Z,22.35
2023-04-15T05:41:26.883Z,22.35
2023-04-15T05:42:26.886Z,22.29
2023-04-15T05:43:26.882Z,22.35
2023-04-15T05:44:26.922Z,22.40
2023-04-15T05:45:26.893Z,22.35
2023-04-15T05:46:26.940Z,22.36
2023-04-15T05:48:46.067Z,22.50
2023-04-15T05:49:46.040Z,22.45
2023-04-15T05:50:46.040Z,22.46
2023-04-15T05:51:46.019Z,22.47
2023-04-15T05:52:46.007Z,22.40
2023-04-15T05:53:46.031Z,22.38
2023-04-15T05:54:45.988Z,22.47
2023-04-15T05:55:45.978Z,22.41
2023-04-15T05:56:45.976Z,22.38
2023-04-15T05:57:45.956Z,22.41
2023-04-15T05:58:45.948Z,22.40
2023-04-15T05:59:45.950Z,22.49
2023-04-15T06:00:45.928Z,22.35
2023-04-15T06:01:45.947Z,22.35
2023-04-15T06:02:46.130Z,22.38
2023-04-15T06:03:46.064Z,22.42
2023-04-15T06:04:45.963Z,22.37
2023-04-15T06:05:45.894Z,22.41
2023-04-15T06:06:45.900Z,22.40
2023-04-15T06:07:48.324Z,22.43
2023-04-15T06:08:46.152Z,22.34
2023-04-15T06:09:46.158Z,22.35
2023-04-15T06:10:46.180Z,22.38
2023-04-15T06:11:46.215Z,22.41
2023-04-15T06:12:46.245Z,22.46
2023-04-15T06:13:46.290Z,22.41
2023-04-15T06:14:46.292Z,22.40
2023-04-15T06:15:46.317Z,22.41
2023-04-15T06:16:46.357Z,22.38
2023-04-15T06:17:46.428Z,22.41
2023-04-15T06:18:46.395Z,22.43
2023-04-15T06:19:46.427Z,22.43
2023-04-15T06:20:46.445Z,22.40
2023-04-15T06:21:46.469Z,22.40
2023-04-15T06:22:46.480Z,22.35
2023-04-15T06:23:46.500Z,22.46
2023-04-15T06:24:46.529Z,22.45
2023-04-15T06:25:46.551Z,22.38
2023-04-15T06:26:46.579Z,22.41
2023-04-15T06:27:46.607Z,22.42
2023-04-15T06:28:46.654Z,22.41
2023-04-15T06:29:46.659Z,22.51
2023-04-15T06:30:46.690Z,22.45
2023-04-15T06:31:46.739Z,22.43
2023-04-15T06:32:46.763Z,22.42
2023-04-15T06:33:46.724Z,22.45
2023-04-15T06:34:46.723Z,22.38
2023-04-15T06:35:46.738Z,22.31
2023-04-15T06:36:46.725Z,22.34
2023-04-15T06:37:46.723Z,22.34
2023-04-15T06:38:46.708Z,22.32
2023-04-15T06:39:46.717Z,22.27
2023-04-15T06:40:46.707Z,22.24
2023-04-15T06:41:46.705Z,22.32
2023-04-15T06:42:46.693Z,22.40
2023-04-15T06:43:46.690Z,22.35
2023-04-15T06:44:46.683Z,22.37
2023-04-15T06:45:46.712Z,22.27
2023-04-15T06:46:46.678Z,22.32
2023-04-15T06:47:46.747Z,22.32
2023-04-15T06:48:46.652Z,22.31
2023-04-15T06:49:46.639Z,22.29
2023-04-15T06:50:46.636Z,22.31
2023-04-15T06:51:46.662Z,22.24
2023-04-15T06:52:46.644Z,22.24
2023-04-15T06:53:46.605Z,22.24
2023-04-15T06:54:46.594Z,22.19
2023-04-15T06:55:46.628Z,22.16
2023-04-15T06:56:46.626Z,22.15
2023-04-15T06:57:46.646Z,22.13
2023-04-15T06:58:46.668Z,22.10
2023-04-15T06:59:46.698Z,22.09
2023-04-15T07:00:46.725Z,22.01
2023-04-15T07:01:46.757Z,21.99
2023-04-15T07:02:46.888Z,21.95
2023-04-15T07:03:46.793Z,21.97
2023-04-15T07:04:46.806Z,21.97
2023-04-15T07:05:46.812Z,21.91
2023-04-15T07:06:46.839Z,21.84
2023-04-15T07:07:46.844Z,21.97
2023-04-15T07:08:46.857Z,21.82
2023-04-15T07:09:46.872Z,21.80
2023-04-15T07:10:46.888Z,21.68
2023-04-15T07:11:46.912Z,21.82
2023-04-15T07:12:46.912Z,21.84
2023-04-15T07:13:46.926Z,21.65
2023-04-15T07:14:46.947Z,21.57
2023-04-15T07:15:46.962Z,21.59
2023-04-15T07:16:47.042Z,21.51
2023-04-15T07:17:47.038Z,21.54
2023-04-15T07:18:47.018Z,21.48
2023-04-15T07:19:47.009Z,21.40
2023-04-15T07:20:47.018Z,21.33
2023-04-15T07:21:47.052Z,21.35
2023-04-15T07:22:47.042Z,21.32
2023-04-15T07:23:47.054Z,21.15
2023-04-15T07:24:47.069Z,21.13
2023-04-15T07:25:47.082Z,21.04
2023-04-15T07:26:47.104Z,21.00
2023-04-15T07:27:47.110Z,20.94
2023-04-15T07:28:47.108Z,21.02
2023-04-15T07:29:47.109Z,20.97
2023-04-15T07:30:47.161Z,20.92
2023-04-15T07:31:47.112Z,20.80
2023-04-15T07:32:47.192Z,20.86
2023-04-15T07:33:47.135Z,20.83
2023-04-15T07:34:47.163Z,20.87
2023-04-15T07:35:47.144Z,20.77
2023-04-15T07:36:47.146Z,20.76
2023-04-15T07:37:47.160Z,20.76
2023-04-15T07:38:47.137Z,20.72
2023-04-15T07:39:47.154Z,20.74
2023-04-15T07:40:47.171Z,20.85
2023-04-15T07:41:47.165Z,20.79
2023-04-15T07:42:47.185Z,20.69
2023-04-15T07:43:47.170Z,20.66
2023-04-15T07:44:47.176Z,20.69
2023-04-15T07:45:47.198Z,20.72
2023-04-15T07:46:47.177Z,20.76
2023-04-15T07:47:47.278Z,20.67
2023-04-15T07:48:47.171Z,20.76
2023-04-15T07:49:47.151Z,20.77
2023-04-15T07:50:47.138Z,20.61
2023-04-15T07:51:47.134Z,20.69
2023-04-15T07:52:47.123Z,20.58
2023-04-15T07:53:47.109Z,20.60
2023-04-15T07:54:47.102Z,20.53
2023-04-15T07:55:47.094Z,20.58
2023-04-15T07:56:47.079Z,20.51
2023-04-15T07:57:47.091Z,20.47
2023-04-15T07:58:47.066Z,20.51
2023-04-15T07:59:47.054Z,20.47
2023-04-15T08:00:47.066Z,20.50
2023-04-15T08:01:47.079Z,20.51
2023-04-15T08:02:47.199Z,20.42
2023-04-15T08:03:47.120Z,20.47
2023-04-15T08:04:47.097Z,20.53
2023-04-15T08:05:46.992Z,20.50
2023-04-15T08:06:46.993Z,20.53
2023-04-15T08:07:46.989Z,20.36
2023-04-15T08:08:46.965Z,20.41
2023-04-15T08:09:46.963Z,20.33
2023-04-15T08:10:46.943Z,20.28
2023-04-15T08:11:46.934Z,20.28
2023-04-15T08:12:46.918Z,20.30
2023-04-15T08:13:46.912Z,20.17
2023-04-15T08:14:46.954Z,20.22
2023-04-15T08:15:46.919Z,20.21
2023-04-15T08:16:46.909Z,20.25
2023-04-15T08:17:46.968Z,20.14
2023-04-15T08:18:46.921Z,20.13
2023-04-15T08:19:46.922Z,19.99
2023-04-15T08:20:46.912Z,20.00
2023-04-15T08:21:46.932Z,19.92
2023-04-15T08:22:46.899Z,19.95
2023-04-15T08:23:46.880Z,20.06
2023-04-15T08:24:46.881Z,20.00
2023-04-15T08:25:46.866Z,19.95
2023-04-15T08:26:46.883Z,19.94
2023-04-15T08:27:46.853Z,19.96
2023-04-15T08:28:46.835Z,19.94
2023-04-15T08:29:46.823Z,19.88
2023-04-15T08:30:46.815Z,19.86
2023-04-15T08:31:46.850Z,19.85
2023-04-15T08:32:46.931Z,19.91
2023-04-15T08:33:46.790Z,19.88
2023-04-15T08:34:46.767Z,19.86
2023-04-15T08:35:46.750Z,19.80
2023-04-15T08:36:46.737Z,19.86
2023-04-15T08:37:46.738Z,19.78
2023-04-15T08:38:46.716Z,19.77
2023-04-15T08:39:46.709Z,19.82
2023-04-15T08:40:46.689Z,19.69
2023-04-15T08:41:46.672Z,19.81
2023-04-15T08:42:46.663Z,19.89
2023-04-15T08:43:46.634Z,19.68
2023-04-15T08:44:46.644Z,19.70
2023-04-15T08:45:46.612Z,19.71
2023-04-15T08:46:46.636Z,19.79
2023-04-15T08:47:46.592Z,19.67
2023-04-15T08:48:46.563Z,19.72
2023-04-15T08:49:46.557Z,19.65
2023-04-15T08:50:46.533Z,19.76
2023-04-15T08:51:46.526Z,19.81
2023-04-15T08:52:46.497Z,19.83
2023-04-15T08:53:46.511Z,19.85
2023-04-15T08:54:46.466Z,19.74
2023-04-15T08:55:46.446Z,19.79
2023-04-15T08:56:46.481Z,19.70
2023-04-15T08:57:46.426Z,19.89
2023-04-15T08:58:46.414Z,19.79
2023-04-15T08:59:46.434Z,19.86
2023-04-15T09:00:46.428Z,19.86
2023-04-15T09:01:46.446Z,19.96
2023-04-15T09:02:46.437Z,19.99
2023-04-15T09:03:46.457Z,20.12
2023-04-15T09:04:46.338Z,20.22
2023-04-15T09:05:46.337Z,20.29
2023-04-15T09:06:46.386Z,20.21
2023-04-15T09:07:46.510Z,20.21
2023-04-15T09:08:46.476Z,20.17
2023-04-15T09:09:46.492Z,20.19
2023-04-15T09:10:46.509Z,20.19
2023-04-15T09:11:46.535Z,20.13
2023-04-15T09:12:46.554Z,20.16
2023-04-15T09:13:46.576Z,20.17
2023-04-15T09:14:46.593Z,20.14
2023-04-15T09:15:46.616Z,20.11
2023-04-15T09:16:48.636Z,20.14
2023-04-15T09:17:46.646Z,20.14
2023-04-15T09:18:46.589Z,20.19
2023-04-15T09:19:46.609Z,20.20
2023-04-15T09:20:46.542Z,20.21
2023-04-15T09:21:46.517Z,20.23
2023-04-15T09:22:46.500Z,20.17
2023-04-15T09:23:46.485Z,20.21
2023-04-15T09:24:46.451Z,20.19
2023-04-15T09:25:46.415Z,20.16
2023-04-15T09:26:46.387Z,20.21
2023-04-15T09:27:46.358Z,20.19
2023-04-15T09:28:46.340Z,20.27
2023-04-15T09:29:46.312Z,20.22
2023-04-15T09:30:46.637Z,20.24
2023-04-15T09:31:46.256Z,20.24
2023-04-15T09:32:46.274Z,20.16
2023-04-15T09:33:46.194Z,20.21
2023-04-15T09:34:46.158Z,20.23
2023-04-15T09:35:46.131Z,20.24
2023-04-15T09:36:46.092Z,20.28
2023-04-15T09:37:46.073Z,20.28
2023-04-15T09:38:46.029Z,20.30
2023-04-15T09:39:45.999Z,20.28
2023-04-15T09:40:45.961Z,20.32
2023-04-15T09:41:45.946Z,20.28
2023-04-15T09:42:45.909Z,20.34
2023-04-15T09:43:45.889Z,20.35
2023-04-15T09:44:45.856Z,20.38
2023-04-15T09:45:45.841Z,20.39
2023-04-15T09:46:45.789Z,20.42
2023-04-15T09:47:45.782Z,20.37
2023-04-15T09:48:45.721Z,20.45
2023-04-15T09:49:45.748Z,20.38
2023-04-15T09:50:45.654Z,20.40
2023-04-15T09:51:54.368Z,20.42
2023-04-15T09:52:46.591Z,20.46
2023-04-15T09:53:45.557Z,20.45
2023-04-15T09:54:45.517Z,20.43
2023-04-15T09:55:45.485Z,20.42
2023-04-15T09:56:45.473Z,20.48
2023-04-15T09:57:45.425Z,20.50
2023-04-15T09:58:45.388Z,20.45
2023-04-15T09:59:45.361Z,20.49
2023-04-15T10:00:45.332Z,20.45
2023-04-15T10:01:45.356Z,20.49
2023-04-15T10:02:45.386Z,20.52
2023-04-15T10:03:45.310Z,20.54
2023-04-15T10:04:45.191Z,20.55
2023-04-15T10:05:45.237Z,20.51
2023-04-15T10:06:45.160Z,20.54
2023-04-15T10:07:45.086Z,20.53
2023-04-15T10:08:45.048Z,20.57
2023-04-15T10:09:45.015Z,20.59
2023-04-15T10:10:44.979Z,20.59
2023-04-15T10:11:44.927Z,20.57
2023-04-15T10:12:44.887Z,20.69
2023-04-15T10:13:44.852Z,20.61
2023-04-15T10:14:44.800Z,20.64
2023-04-15T10:15:44.797Z,20.59
2023-04-15T10:16:44.718Z,20.66
2023-04-15T10:17:44.752Z,20.64
2023-04-15T10:18:44.631Z,20.61
2023-04-15T10:19:44.604Z,20.64
2023-04-15T10:20:44.565Z,20.69
2023-04-15T10:21:44.525Z,20.60
2023-04-15T10:22:44.484Z,20.68
2023-04-15T10:23:44.451Z,20.65
2023-04-15T10:24:44.430Z,20.66
2023-04-15T10:25:44.381Z,20.68
2023-04-15T10:26:44.340Z,20.64
2023-04-15T10:27:44.309Z,20.65
2023-04-15T10:28:44.251Z,20.65
2023-04-15T10:29:44.218Z,20.68
2023-04-15T10:30:44.167Z,20.66
2023-04-15T10:31:44.268Z,20.70
2023-04-15T10:32:44.107Z,20.70
2023-04-15T10:33:44.042Z,20.70
2023-04-15T10:34:44.011Z,20.72
2023-04-15T10:35:43.968Z,20.70
2023-04-15T10:36:43.920Z,20.68
2023-04-15T10:37:43.879Z,20.72
2023-04-15T10:38:43.841Z,20.72
2023-04-15T10:39:43.804Z,20.70
2023-04-15T10:40:43.745Z,20.74
2023-04-15T10:41:43.703Z,20.76
2023-04-15T10:42:43.657Z,20.74
2023-04-15T10:43:43.615Z,20.75
2023-04-15T10:44:43.575Z,20.77
2023-04-15T10:45:43.526Z,20.78
2023-04-15T10:46:43.553Z,20.76
2023-04-15T10:47:43.480Z,20.74
2023-04-15T10:48:43.403Z,20.76
2023-04-15T10:49:43.365Z,20.72
2023-04-15T10:50:43.367Z,20.76
2023-04-15T10:51:43.369Z,20.79
2023-04-15T10:52:43.381Z,20.84
2023-04-15T10:53:43.398Z,20.82
2023-04-15T10:54:43.441Z,20.81
2023-04-15T10:55:43.438Z,20.77
2023-04-15T10:56:43.442Z,20.79
2023-04-15T10:57:43.487Z,20.86
2023-04-15T10:58:43.489Z,20.77
2023-04-15T10:59:43.512Z,20.81
2023-04-15T11:00:43.536Z,20.81
2023-04-15T11:01:43.591Z,20.86
2023-04-15T11:02:43.666Z,20.83
2023-04-15T11:03:43.665Z,20.79
2023-04-15T11:04:43.479Z,20.89
2023-04-15T11:05:43.402Z,20.87
2023-04-15T11:06:43.356Z,20.89
2023-04-15T11:07:43.313Z,20.91
2023-04-15T11:08:43.276Z,20.89
2023-04-15T11:09:43.229Z,20.94
2023-04-15T11:10:43.187Z,20.92
2023-04-15T11:11:44.381Z,20.94
2023-04-15T11:12:43.099Z,20.89
2023-04-15T11:13:43.064Z,20.91
2023-04-15T11:14:43.053Z,20.94
2023-04-15T11:15:43.009Z,20.92
2023-04-15T11:16:42.962Z,20.94
2023-04-15T11:17:44.126Z,20.89
2023-04-15T11:18:42.859Z,20.96
2023-04-15T11:19:42.822Z,20.92
2023-04-15T11:20:42.801Z,20.99
2023-04-15T11:21:42.733Z,20.97
2023-04-15T11:22:42.688Z,20.96
2023-04-15T11:23:42.655Z,20.96
2023-04-15T11:24:42.616Z,20.96
2023-04-15T11:25:42.566Z,20.94
2023-04-15T11:26:42.526Z,20.95
2023-04-15T11:27:42.489Z,20.93
2023-04-15T11:28:42.446Z,20.94
2023-04-15T11:29:42.411Z,20.98
2023-04-15T11:30:42.384Z,21.01
2023-04-15T11:31:42.389Z,20.99
2023-04-15T11:32:42.350Z,20.99
2023-04-15T11:33:42.247Z,21.01
2023-04-15T11:34:42.239Z,21.01
2023-04-15T11:35:42.184Z,20.99
2023-04-15T11:36:42.128Z,20.99
2023-04-15T11:37:42.079Z,21.03
2023-04-15T11:38:42.031Z,21.09
2023-04-15T11:39:41.990Z,21.03
2023-04-15T11:40:43.310Z,21.04
2023-04-15T11:41:42.146Z,21.09
2023-04-15T11:42:49.600Z,21.14
2023-04-15T11:43:43.137Z,21.07
2023-04-15T11:44:42.088Z,21.15
2023-04-15T11:45:42.076Z,21.06
2023-04-15T11:46:43.452Z,21.17
2023-04-15T11:47:42.006Z,21.14
2023-04-15T11:48:41.900Z,21.15
2023-04-15T11:49:41.862Z,21.12
2023-04-15T11:50:41.821Z,21.15
2023-04-15T11:51:41.788Z,21.20
2023-04-15T11:52:41.731Z,21.15
2023-04-15T11:53:41.692Z,21.23
2023-04-15T11:54:41.634Z,21.20
2023-04-15T11:55:41.597Z,21.15
2023-04-15T11:56:41.553Z,21.19
2023-04-15T11:57:41.560Z,21.25
2023-04-15T11:58:41.588Z,21.24
2023-04-15T11:59:45.433Z,21.26
2023-04-15T12:00:41.580Z,21.20
2023-04-15T12:01:41.526Z,21.24
2023-04-15T12:02:41.565Z,21.19
2023-04-15T12:03:41.760Z,21.21
2023-04-15T12:04:41.532Z,21.19
2023-04-15T12:05:41.370Z,21.26
2023-04-15T12:06:41.377Z,21.17
2023-04-15T12:07:41.294Z,21.26
2023-04-15T12:08:41.249Z,21.26
2023-04-15T12:09:41.239Z,21.24
2023-04-15T12:10:41.177Z,21.23
2023-04-15T12:11:41.157Z,21.18
2023-04-15T12:12:41.098Z,21.18
2023-04-15T12:13:41.063Z,21.19
2023-04-15T12:14:41.019Z,21.19
2023-04-15T12:15:40.997Z,21.23
2023-04-15T12:16:49.694Z,21.24
2023-04-15T12:17:51.570Z,21.27
2023-04-15T12:18:41.864Z,21.20
2023-04-15T12:19:40.810Z,21.31
2023-04-15T12:20:40.805Z,21.26
2023-04-15T12:21:40.736Z,21.28
2023-04-15T12:22:40.709Z,21.27
2023-04-15T12:23:40.656Z,21.28
2023-04-15T12:24:40.661Z,21.36
2023-04-15T12:25:40.569Z,21.33
2023-04-15T12:26:40.516Z,21.28
2023-04-15T12:27:40.477Z,21.29
2023-04-15T12:28:40.425Z,21.37
2023-04-15T12:29:40.394Z,21.37
2023-04-15T12:30:40.348Z,21.36
2023-04-15T12:31:40.435Z,21.39
2023-04-15T12:32:42.234Z,21.40
2023-04-15T12:33:40.205Z,21.40
2023-04-15T12:34:40.202Z,21.47
2023-04-15T12:35:40.105Z,21.40
2023-04-15T12:36:40.058Z,21.42
2023-04-15T12:37:40.003Z,21.45
2023-04-15T12:38:39.954Z,21.47
2023-04-15T12:39:39.965Z,21.47
2023-04-15T12:40:39.873Z,21.51
2023-04-15T12:41:39.824Z,21.55
2023-04-15T12:42:39.774Z,21.53
2023-04-15T12:43:39.733Z,21.47
2023-04-15T12:44:39.689Z,21.55
2023-04-15T12:45:39.657Z,21.53
2023-04-15T12:46:39.716Z,21.55
2023-04-15T12:47:39.588Z,21.56
2023-04-15T12:48:39.524Z,21.54
2023-04-15T12:49:39.577Z,21.63
2023-04-15T12:50:39.444Z,21.58
2023-04-15T12:51:39.379Z,21.59
2023-04-15T12:52:39.343Z,21.58
2023-04-15T12:53:39.281Z,21.50
2023-04-15T12:54:39.261Z,21.55